createdAt,value
2023-03-27T00:01:30.864Z,44.00
2023-03-27T00:03:59.024Z,44.78
2023-03-27T00:06:27.670Z,42.25
2023-03-27T00:08:56.266Z,38.20
2023-03-27T00:11:25.273Z,39.13
2023-03-27T00:13:56.442Z,43.95
2023-03-27T00:16:27.181Z,39.08
2023-03-27T00:18:56.053Z,40.42
2023-03-27T00:21:24.536Z,43.42
2023-03-27T00:23:52.592Z,41.35
2023-03-27T00:26:22.540Z,39.97
2023-03-27T00:28:50.384Z,36.42
2023-03-27T00:31:18.464Z,40.13
2023-03-27T00:33:46.857Z,39.40
2023-03-27T00:36:15.508Z,38.88
2023-03-27T00:38:44.082Z,42.50
2023-03-27T00:41:12.896Z,41.25
2023-03-27T00:43:44.964Z,43.03
2023-03-27T00:46:16.096Z,39.58
2023-03-27T00:48:47.385Z,36.10
2023-03-27T00:51:16.714Z,38.65
2023-03-27T00:53:46.236Z,45.45
2023-03-27T00:56:16.915Z,40.53
2023-03-27T00:59:11.243Z,39.55
2023-03-27T01:01:40.516Z,40.92
2023-03-27T01:04:09.415Z,38.50
2023-03-27T01:06:39.373Z,39.03
2023-03-27T01:09:09.536Z,37.67
2023-03-27T01:12:07.803Z,43.33
2023-03-27T01:15:02.060Z,42.30
2023-03-27T01:18:08.125Z,43.67
2023-03-27T01:21:14.234Z,39.05
2023-03-27T01:24:09.634Z,40.75
2023-03-27T01:26:58.336Z,45.42
2023-03-27T01:29:39.508Z,45.63
2023-03-27T01:32:15.017Z,43.55
2023-03-27T01:35:20.357Z,51.08
2023-03-27T01:38:13.040Z,46.67
2023-03-27T01:41:06.254Z,62.03
2023-03-27T01:43:45.969Z,48.78
2023-03-27T01:46:21.301Z,41.80
2023-03-27T01:49:16.521Z,39.20
2023-03-27T01:51:49.283Z,39.95
2023-03-27T01:54:22.000Z,44.35
2023-03-27T01:59:27.311Z,55.78
2023-03-27T02:02:04.691Z,61.35
2023-03-27T02:04:44.726Z,62.28
2023-03-27T02:07:19.006Z,57.50
2023-03-27T02:09:52.538Z,59.42
2023-03-27T02:12:34.171Z,65.88
2023-03-27T02:15:23.911Z,71.47
2023-03-27T02:18:05.216Z,67.75
2023-03-27T02:20:34.799Z,60.85
2023-03-27T02:23:04.121Z,73.97
2023-03-27T02:25:33.178Z,69.65
2023-03-27T02:28:26.569Z,96.15
2023-03-27T02:31:32.334Z,78.10
2023-03-27T02:34:20.576Z,67.85
2023-03-27T02:37:07.464Z,71.70
2023-03-27T02:40:15.753Z,67.13
2023-03-27T02:42:46.493Z,58.38
2023-03-27T02:45:51.881Z,62.53
2023-03-27T02:48:40.849Z,58.70
2023-03-27T02:51:36.772Z,58.80
2023-03-27T02:54:13.264Z,59.97
2023-03-27T02:56:46.977Z,57.17
2023-03-27T02:59:45.894Z,53.88
2023-03-27T03:02:18.290Z,58.05
2023-03-27T03:04:59.266Z,75.00
2023-03-27T03:07:30.383Z,71.32
2023-03-27T03:09:58.704Z,73.95
2023-03-27T03:12:27.010Z,65.75
2023-03-27T03:14:55.695Z,53.42
2023-03-27T03:17:23.944Z,55.40
2023-03-27T03:19:52.279Z,54.25
2023-03-27T03:22:20.880Z,57.95
2023-03-27T03:24:49.198Z,63.75
2023-03-27T03:27:22.894Z,70.60
2023-03-27T03:29:57.741Z,67.13
2023-03-27T03:32:30.526Z,63.35
2023-03-27T03:35:01.858Z,60.75
2023-03-27T03:37:38.896Z,61.83
2023-03-27T03:40:12.189Z,59.40
2023-03-27T03:42:46.428Z,61.70
2023-03-27T03:45:16.435Z,64.07
2023-03-27T03:47:45.909Z,71.30
2023-03-27T03:50:14.674Z,71.40
2023-03-27T03:52:43.478Z,80.97
2023-03-27T03:55:12.359Z,73.88
2023-03-27T03:57:41.096Z,68.85
2023-03-27T04:00:14.385Z,64.38
2023-03-27T04:02:51.673Z,64.45
2023-03-27T04:05:21.853Z,57.70
2023-03-27T04:07:53.069Z,60.63
2023-03-27T04:10:41.589Z,60.47
2023-03-27T04:13:22.381Z,73.38
2023-03-27T04:16:01.972Z,70.07
2023-03-27T04:18:41.638Z,72.45
2023-03-27T04:21:18.413Z,75.78
2023-03-27T04:23:51.792Z,71.68
2023-03-27T04:26:29.922Z,64.53
2023-03-27T04:29:16.211Z,69.60
2023-03-27T04:32:30.834Z,61.55
2023-03-27T04:35:28.217Z,69.78
2023-03-27T04:38:08.994Z,59.50
2023-03-27T04:40:49.303Z,63.17
2023-03-27T04:43:19.875Z,62.85
2023-03-27T04:45:48.689Z,61.53
2023-03-27T04:48:17.642Z,61.58
2023-03-27T04:50:50.687Z,61.58
2023-03-27T04:53:32.410Z,60.40
2023-03-27T04:56:01.889Z,75.15
2023-03-27T04:58:37.184Z,82.32
2023-03-27T05:01:10.159Z,75.55
2023-03-27T05:04:08.052Z,78.03
2023-03-27T05:06:51.760Z,60.70
2023-03-27T05:09:20.582Z,68.18
2023-03-27T05:11:50.776Z,67.32
2023-03-27T05:14:21.871Z,57.90
2023-03-27T05:16:51.124Z,63.90
2023-03-27T05:19:20.695Z,68.57
2023-03-27T05:21:57.460Z,63.65
2023-03-27T05:24:25.667Z,64.40
2023-03-27T05:26:54.092Z,62.05
2023-03-27T05:29:22.617Z,65.97
2023-03-27T05:32:01.139Z,67.93
2023-03-27T05:34:55.267Z,64.88
2023-03-27T05:37:26.362Z,66.88
2023-03-27T05:40:18.184Z,61.38
2023-03-27T05:42:47.097Z,57.70
2023-03-27T05:45:16.453Z,49.60
2023-03-27T05:47:53.154Z,40.95
2023-03-27T05:50:25.686Z,47.60
2023-03-27T05:52:59.544Z,44.92
2023-03-27T05:55:39.792Z,38.53
2023-03-27T05:58:10.410Z,36.08
2023-03-27T06:00:42.058Z,41.47
2023-03-27T06:03:13.856Z,32.35
2023-03-27T06:06:11.964Z,32.65
2023-03-27T06:08:42.729Z,30.77
2023-03-27T06:11:13.224Z,28.13
2023-03-27T06:13:45.805Z,33.35
2023-03-27T06:16:21.396Z,26.38
2023-03-27T06:19:07.926Z,23.67
2023-03-27T06:21:44.742Z,21.23
2023-03-27T06:24:12.808Z,20.52
2023-03-27T06:26:41.550Z,16.25
2023-03-27T06:29:11.083Z,17.90
2023-03-27T06:31:46.899Z,16.27
2023-03-27T06:34:22.671Z,19.33
2023-03-27T06:37:00.064Z,16.30
2023-03-27T06:39:28.520Z,18.23
2023-03-27T06:41:57.360Z,15.88
2023-03-27T06:44:48.129Z,13.40
2023-03-27T06:47:51.678Z,16.00
2023-03-27T06:50:35.983Z,13.75
2023-03-27T06:53:12.891Z,17.60
2023-03-27T06:55:50.121Z,20.10
2023-03-27T06:58:19.300Z,15.02
2023-03-27T07:00:49.631Z,12.52
2023-03-27T07:03:21.091Z,21.83
2023-03-27T07:06:07.512Z,11.45
2023-03-27T07:08:55.698Z,20.33
2023-03-27T07:11:24.125Z,13.52
2023-03-27T07:13:57.068Z,15.95
2023-03-27T07:16:29.564Z,17.25
2023-03-27T07:19:00.885Z,12.93
2023-03-27T07:24:01.460Z,10.23
2023-03-27T07:26:34.017Z,10.98
2023-03-27T07:29:13.594Z,14.55
2023-03-27T07:31:57.732Z,9.63
2023-03-27T07:34:54.248Z,12.10
2023-03-27T07:37:38.473Z,9.52
2023-03-27T07:40:37.277Z,13.93
2023-03-27T07:43:26.185Z,11.13
2023-03-27T07:45:55.157Z,8.85
2023-03-27T07:48:25.259Z,11.15
2023-03-27T07:53:33.975Z,7.93
2023-03-27T07:56:26.924Z,11.32
2023-03-27T07:59:28.284Z,10.40
2023-03-27T08:01:59.597Z,9.83
2023-03-27T08:04:29.648Z,8.75
2023-03-27T08:07:05.688Z,7.78
2023-03-27T08:09:35.465Z,6.85
2023-03-27T08:12:04.482Z,13.30
2023-03-27T08:14:33.467Z,6.05
2023-03-27T08:17:16.342Z,11.18
2023-03-27T08:19:46.624Z,9.50
2023-03-27T08:22:17.272Z,7.53
2023-03-27T08:25:06.625Z,4.60
2023-03-27T08:27:36.188Z,9.65
2023-03-27T08:30:05.172Z,5.30
2023-03-27T08:32:36.806Z,7.55
2023-03-27T08:35:09.251Z,8.23
2023-03-27T08:37:37.651Z,6.32
2023-03-27T08:40:27.095Z,7.30
2023-03-27T08:43:19.422Z,3.80
2023-03-27T08:45:52.235Z,5.30
2023-03-27T08:48:30.517Z,6.13
2023-03-27T08:51:19.043Z,4.15
2023-03-27T08:53:59.609Z,6.38
2023-03-27T08:56:30.773Z,7.10
2023-03-27T08:58:59.589Z,3.78
2023-03-27T09:01:54.237Z,8.90
2023-03-27T09:04:36.391Z,7.55
2023-03-27T09:07:11.917Z,6.50
2023-03-27T09:09:59.616Z,4.40
2023-03-27T09:12:56.966Z,7.28
2023-03-27T09:15:29.100Z,10.18
2023-03-27T09:18:15.771Z,6.40
2023-03-27T09:20:56.643Z,7.70
2023-03-27T09:23:24.767Z,11.35
2023-03-27T09:26:21.843Z,8.52
2023-03-27T09:29:30.190Z,9.73
2023-03-27T09:32:18.114Z,9.02
2023-03-27T09:34:46.223Z,6.40
2023-03-27T09:37:18.082Z,7.88
2023-03-27T09:39:50.360Z,5.07
2023-03-27T09:42:34.150Z,10.35
2023-03-27T09:45:08.342Z,8.00
2023-03-27T09:47:57.421Z,8.13
2023-03-27T09:50:33.221Z,8.18
2023-03-27T09:53:16.506Z,7.18
2023-03-27T09:55:53.232Z,6.57
2023-03-27T09:58:37.577Z,13.25
2023-03-27T10:01:16.299Z,11.88
2023-03-27T10:03:53.609Z,18.50
2023-03-27T10:06:39.020Z,18.67
2023-03-27T10:09:30.141Z,20.60
2023-03-27T10:12:16.918Z,12.82
2023-03-27T10:14:52.263Z,7.55
2023-03-27T10:17:28.355Z,23.10
2023-03-27T10:20:11.020Z,45.50
2023-03-27T10:22:42.615Z,18.13
2023-03-27T10:25:23.127Z,8.95
2023-03-27T10:28:20.038Z,6.50
2023-03-27T10:31:25.647Z,5.68
2023-03-27T10:34:43.669Z,11.25
2023-03-27T10:37:34.640Z,15.93
2023-03-27T10:40:26.984Z,6.47
2023-03-27T10:43:04.408Z,6.78
2023-03-27T10:45:44.501Z,7.72
2023-03-27T10:48:25.658Z,5.75
2023-03-27T10:50:55.347Z,7.95
2023-03-27T10:53:52.482Z,5.30
2023-03-27T10:56:33.907Z,7.97
2023-03-27T10:59:09.316Z,4.68
2023-03-27T11:01:51.289Z,7.70
2023-03-27T11:04:25.345Z,6.75
2023-03-27T11:07:03.801Z,5.45
2023-03-27T11:09:34.444Z,6.28
2023-03-27T11:12:12.299Z,6.15
2023-03-27T11:15:07.862Z,4.68
2023-03-27T11:17:52.657Z,11.48
2023-03-27T11:20:37.189Z,3.38
2023-03-27T11:23:09.901Z,5.07
2023-03-27T11:25:54.086Z,8.32
2023-03-27T11:28:45.230Z,6.72
2023-03-27T11:31:40.695Z,6.43
2023-03-27T11:34:29.315Z,5.20
2023-03-27T11:37:20.468Z,5.63
2023-03-27T11:39:56.057Z,5.80
2023-03-27T11:42:28.807Z,6.90
2023-03-27T11:44:57.225Z,5.10
2023-03-27T11:47:46.521Z,3.95
2023-03-27T11:50:40.785Z,10.75
2023-03-27T11:53:46.871Z,4.90
2023-03-27T11:56:33.274Z,7.10
2023-03-27T11:59:42.254Z,4.55
2023-03-27T12:02:49.552Z,7.65
2023-03-27T12:05:40.760Z,10.10
2023-03-27T12:08:17.413Z,14.73
2023-03-27T12:10:51.669Z,4.88
2023-03-27T12:14:18.587Z,3.33
2023-03-27T12:17:14.758Z,4.20
2023-03-27T12:20:28.583Z,6.40
2023-03-27T12:23:28.663Z,4.03
2023-03-27T12:26:19.406Z,3.55
2023-03-27T12:29:43.936Z,8.93
2023-03-27T12:32:46.482Z,6.25
2023-03-27T12:35:32.600Z,4.57
2023-03-27T12:38:03.573Z,6.18
2023-03-27T12:40:41.442Z,5.43
2023-03-27T12:43:29.829Z,4.05
2023-03-27T12:46:34.872Z,9.35
2023-03-27T12:49:10.746Z,4.45
2023-03-27T12:51:58.086Z,8.20
2023-03-27T12:55:06.100Z,19.52
2023-03-27T12:57:53.475Z,8.80
2023-03-27T13:00:42.463Z,15.75
2023-03-27T13:03:52.183Z,9.32
2023-03-27T13:06:44.932Z,7.65
2023-03-27T13:09:34.292Z,7.93
2023-03-27T13:12:36.280Z,47.92
2023-03-27T13:15:27.610Z,14.25
2023-03-27T13:18:26.059Z,8.45
2023-03-27T13:21:05.176Z,11.20
2023-03-27T13:23:44.755Z,10.80
2023-03-27T13:26:28.130Z,4.82
2023-03-27T13:29:02.364Z,5.07
2023-03-27T13:31:45.483Z,8.02
2023-03-27T13:34:42.305Z,7.20
2023-03-27T13:37:15.601Z,7.93
2023-03-27T13:40:00.133Z,8.70
2023-03-27T13:42:40.689Z,5.32
2023-03-27T13:45:29.936Z,5.40
2023-03-27T13:48:57.689Z,6.38
2023-03-27T13:54:42.049Z,9.60
2023-03-27T13:57:31.594Z,5.43
2023-03-27T14:00:27.807Z,7.10
2023-03-27T14:03:28.022Z,10.75
2023-03-27T14:06:20.366Z,15.27
2023-03-27T14:09:06.648Z,6.90
2023-03-27T14:12:08.549Z,20.50
2023-03-27T14:15:19.046Z,8.55
2023-03-27T14:18:36.597Z,5.95
2023-03-27T14:21:07.458Z,2.70
2023-03-27T14:24:04.371Z,4.13
2023-03-27T14:26:46.238Z,3.17
2023-03-27T14:29:18.087Z,8.93
2023-03-27T14:31:49.430Z,4.35
2023-03-27T14:34:35.247Z,2.97
2023-03-27T14:37:36.655Z,4.82
2023-03-27T14:40:21.034Z,5.75
2023-03-27T14:42:52.874Z,3.97
2023-03-27T14:45:27.353Z,4.00
2023-03-27T14:48:22.707Z,6.88
2023-03-27T14:50:55.473Z,2.72
2023-03-27T14:53:26.839Z,2.85
2023-03-27T14:56:46.327Z,2.80
2023-03-27T14:59:35.734Z,1.83
2023-03-27T15:02:14.519Z,1.90
2023-03-27T15:04:44.113Z,1.58
2023-03-27T15:07:22.683Z,2.45
2023-03-27T15:10:22.600Z,3.22
2023-03-27T15:13:10.900Z,2.65
2023-03-27T15:15:47.366Z,2.45
2023-03-27T15:18:42.348Z,1.70
2023-03-27T15:21:20.313Z,4.78
2023-03-27T15:23:58.962Z,3.42
2023-03-27T15:26:31.657Z,2.75
2023-03-27T15:29:14.755Z,5.75
2023-03-27T15:31:43.709Z,3.63
2023-03-27T15:34:46.851Z,4.05
2023-03-27T15:37:25.660Z,23.83
2023-03-27T15:40:16.266Z,9.00
2023-03-27T15:42:52.998Z,6.03
2023-03-27T15:45:24.795Z,7.97
2023-03-27T15:48:01.548Z,3.58
2023-03-27T15:50:29.862Z,7.50
2023-03-27T15:52:59.396Z,7.60
2023-03-27T15:55:44.608Z,6.60
2023-03-27T15:58:37.067Z,3.78
2023-03-27T16:01:18.089Z,6.32
2023-03-27T16:03:48.544Z,6.55
2023-03-27T16:06:26.731Z,8.88
2023-03-27T16:08:55.416Z,6.10
2023-03-27T16:11:56.267Z,7.35
2023-03-27T16:14:52.421Z,5.25
2023-03-27T16:17:34.548Z,9.02
2023-03-27T16:20:13.223Z,7.57
2023-03-27T16:22:41.852Z,6.20
2023-03-27T16:25:11.241Z,6.13
2023-03-27T16:27:53.125Z,5.85
2023-03-27T16:30:21.165Z,5.03
2023-03-27T16:32:49.749Z,5.38
2023-03-27T16:35:17.961Z,7.50
2023-03-27T16:37:46.463Z,4.97
2023-03-27T16:40:15.324Z,5.45
2023-03-27T16:42:43.857Z,5.05
2023-03-27T16:45:11.992Z,4.45
2023-03-27T16:47:41.884Z,4.45
2023-03-27T16:50:16.011Z,3.60
2023-03-27T16:52:44.466Z,5.80
2023-03-27T16:55:14.145Z,4.97
2023-03-27T16:57:42.699Z,4.38
2023-03-27T17:00:12.344Z,7.25
2023-03-27T17:02:40.979Z,3.38
2023-03-27T17:05:09.674Z,6.00
2023-03-27T17:07:38.394Z,6.90
2023-03-27T17:10:07.070Z,5.43
2023-03-27T17:12:35.248Z,5.55
2023-03-27T17:15:04.155Z,7.30
2023-03-27T17:17:32.442Z,8.27
2023-03-27T17:20:00.928Z,7.70
2023-03-27T17:22:30.352Z,14.40
2023-03-27T17:25:01.340Z,11.45
2023-03-27T17:27:30.009Z,18.17
2023-03-27T17:29:58.191Z,8.32
2023-03-27T17:32:27.193Z,8.82
2023-03-27T17:34:55.662Z,7.40
2023-03-27T17:37:24.311Z,6.47
2023-03-27T17:39:52.246Z,8.45
2023-03-27T17:42:20.192Z,6.35
2023-03-27T17:44:48.326Z,8.65
2023-03-27T17:47:16.566Z,7.43
2023-03-27T17:49:45.514Z,9.13
2023-03-27T17:52:14.527Z,3.70
2023-03-27T17:54:42.100Z,8.38
2023-03-27T17:57:10.670Z,8.20
2023-03-27T17:59:38.664Z,8.27
2023-03-27T18:02:07.552Z,8.70
2023-03-27T18:04:35.718Z,8.05
2023-03-27T18:07:04.250Z,9.18
2023-03-27T18:09:34.184Z,6.40
2023-03-27T18:12:02.635Z,4.32
2023-03-27T18:14:30.518Z,9.00
2023-03-27T18:16:58.560Z,7.43
2023-03-27T18:19:26.599Z,8.25
2023-03-27T18:21:54.969Z,8.48
2023-03-27T18:24:23.038Z,5.68
2023-03-27T18:26:51.457Z,7.00
2023-03-27T18:29:21.599Z,6.72
2023-03-27T18:31:50.278Z,5.50
2023-03-27T18:34:18.360Z,7.63
2023-03-27T18:36:51.261Z,9.30
2023-03-27T18:39:19.378Z,6.57
2023-03-27T18:41:47.722Z,7.03
2023-03-27T18:44:16.073Z,5.55
2023-03-27T18:46:44.208Z,6.30
2023-03-27T18:49:23.807Z,12.23
2023-03-27T18:51:52.811Z,8.55
2023-03-27T18:54:20.877Z,8.27
2023-03-27T18:56:49.499Z,12.63
2023-03-27T18:59:18.399Z,9.48
2023-03-27T19:01:46.892Z,9.77
2023-03-27T19:04:17.107Z,9.80
2023-03-27T19:06:46.840Z,8.48
2023-03-27T19:09:15.021Z,8.70
2023-03-27T19:11:44.114Z,7.63
2023-03-27T19:14:30.882Z,7.18
2023-03-27T19:17:19.310Z,5.90
2023-03-27T19:20:09.605Z,9.02
2023-03-27T19:25:38.334Z,13.23
2023-03-27T19:28:06.603Z,16.23
2023-03-27T19:30:34.672Z,16.60
2023-03-27T19:33:02.964Z,22.40
2023-03-27T19:35:31.113Z,11.30
2023-03-27T19:37:59.650Z,8.73
2023-03-27T19:40:27.548Z,9.10
2023-03-27T19:42:55.703Z,8.20
2023-03-27T19:45:23.640Z,6.80
2023-03-27T19:47:52.536Z,9.43
2023-03-27T19:50:21.116Z,12.95
2023-03-27T19:53:09.049Z,17.08
2023-03-27T19:55:37.926Z,15.43
2023-03-27T19:58:06.292Z,17.27
2023-03-27T20:00:38.781Z,11.60
2023-03-27T20:03:10.650Z,7.63
2023-03-27T20:05:41.201Z,9.82
2023-03-27T20:08:09.789Z,8.93
2023-03-27T20:10:37.647Z,7.78
2023-03-27T20:13:06.181Z,7.90
2023-03-27T20:15:34.783Z,8.02
2023-03-27T20:18:04.959Z,4.63
2023-03-27T20:20:33.589Z,8.15
2023-03-27T20:23:03.703Z,8.85
2023-03-27T20:25:34.332Z,10.70
2023-03-27T20:28:05.884Z,12.13
2023-03-27T20:30:37.131Z,10.70
2023-03-27T20:33:06.226Z,11.43
2023-03-27T20:35:37.075Z,16.45
2023-03-27T20:38:11.529Z,15.43
2023-03-27T20:40:53.151Z,12.85
2023-03-27T20:43:27.533Z,9.93
2023-03-27T20:45:59.270Z,10.57
2023-03-27T20:48:40.558Z,10.75
2023-03-27T20:51:16.061Z,17.48
2023-03-27T20:53:54.522Z,15.77
2023-03-27T20:56:23.302Z,10.73
2023-03-27T20:58:54.272Z,17.65
2023-03-27T21:01:28.165Z,17.23
2023-03-27T21:03:58.653Z,20.27
2023-03-27T21:06:26.839Z,9.75
2023-03-27T21:08:56.362Z,16.50
2023-03-27T21:11:24.050Z,7.57
2023-03-27T21:13:53.492Z,8.10
2023-03-27T21:16:21.773Z,11.27
2023-03-27T21:18:51.196Z,13.13
2023-03-27T21:21:19.532Z,9.55
2023-03-27T21:23:48.353Z,10.02
2023-03-27T21:26:17.761Z,11.57
2023-03-27T21:28:46.357Z,8.25
2023-03-27T21:31:14.170Z,13.05
2023-03-27T21:33:42.822Z,12.13
2023-03-27T21:36:13.086Z,9.70
2023-03-27T21:38:41.490Z,11.05
2023-03-27T21:41:14.451Z,10.13
2023-03-27T21:43:42.873Z,11.48
2023-03-27T21:46:10.943Z,10.27
2023-03-27T21:48:45.064Z,10.68
2023-03-27T21:51:12.949Z,13.60
2023-03-27T21:53:42.803Z,11.32
2023-03-27T21:56:10.792Z,9.90
2023-03-27T21:58:39.350Z,18.52
2023-03-27T22:01:07.442Z,16.73
2023-03-27T22:03:35.959Z,13.63
2023-03-27T22:06:11.544Z,14.70
2023-03-27T22:08:43.046Z,17.85
2023-03-27T22:11:12.659Z,15.82
2023-03-27T22:13:42.287Z,17.08
2023-03-27T22:16:12.595Z,16.77
2023-03-27T22:18:41.628Z,14.18
2023-03-27T22:21:24.297Z,18.63
2023-03-27T22:23:54.069Z,13.90
2023-03-27T22:26:29.493Z,14.48
2023-03-27T22:28:58.243Z,20.02
2023-03-27T22:31:27.626Z,13.38
2023-03-27T22:33:56.593Z,21.92
2023-03-27T22:36:24.788Z,10.48
2023-03-27T22:38:52.793Z,13.13
2023-03-27T22:41:20.470Z,10.93
2023-03-27T22:43:49.835Z,14.57
2023-03-27T22:46:23.662Z,17.00
2023-03-27T22:48:57.082Z,16.38
2023-03-27T22:51:28.235Z,16.55
2023-03-27T22:53:58.447Z,21.35
2023-03-27T22:56:27.169Z,13.85
2023-03-27T22:58:56.008Z,17.90
2023-03-27T23:01:24.663Z,12.20
2023-03-27T23:03:54.430Z,11.45
2023-03-27T23:06:23.984Z,9.07
2023-03-27T23:08:56.145Z,10.45
2023-03-27T23:11:25.192Z,14.95
2023-03-27T23:13:54.060Z,14.80
2023-03-27T23:16:23.623Z,14.10
2023-03-27T23:18:52.381Z,14.60
2023-03-27T23:21:21.810Z,14.05
2023-03-27T23:23:50.013Z,15.30
2023-03-27T23:26:18.475Z,24.20
2023-03-27T23:28:46.998Z,26.70
2023-03-27T23:31:17.726Z,23.17
2023-03-27T23:33:47.781Z,24.52
2023-03-27T23:36:19.759Z,26.10
2023-03-27T23:38:48.019Z,24.15
2023-03-27T23:41:17.303Z,22.80
2023-03-27T23:43:45.697Z,24.13
2023-03-27T23:46:15.757Z,20.88
2023-03-27T23:48:45.085Z,26.77
2023-03-27T23:51:16.655Z,22.70
2023-03-27T23:53:45.465Z,22.70
2023-03-27T23:56:14.210Z,17.02
2023-03-27T23:58:42.501Z,20.92
